Spanish Town, Jamaica
Current Conditions -  °F | °C
As of 12:00 AM on Thursday 27 Nov 2014 (Local Time) from MKJP Reporting Station
Thunderstorm Thunderstorm  
Wind Chill: 81°   Ceiling: Unl
Heat Index: 85°   Visibility: 6mi
Dew Point: 73°   Wind: 7mph
Humidity: 79%   Direction: 330°NNW
Pressure: 29.97"   Gusts: NA
Location:  18°N, 76.95°W
Report Text: MKJP 270500Z 33006KT 9999 VCTS FEW022 FEW024CB 27/23 Q1015
Loading
Personal Weather Stations






























Interactive Weather Map New forecast layout! Learn more

10-Day Weather Forecast

Advertisements
Track Severe Weather on mobile